sensor_id;sensor_type;location;lat;lon;timestamp;P1;durP1;ratioP1;P2;durP2;ratioP2
45792;SDS011;31495;42.740;22.908;2022-07-29T00:00:06;15.93;;;10.63;;
45792;SDS011;31495;42.740;22.908;2022-07-29T00:01:07;13.07;;;11.07;;
45792;SDS011;31495;42.740;22.908;2022-07-29T00:02:06;13.13;;;10.75;;
45792;SDS011;31495;42.740;22.908;2022-07-29T00:03:06;13.13;;;10.27;;
45792;SDS011;31495;42.740;22.908;2022-07-29T00:04:05;12.57;;;9.88;;
45792;SDS011;31495;42.740;22.908;2022-07-29T00:05:05;13.20;;;10.75;;
45792;SDS011;31495;42.740;22.908;2022-07-29T00:06:05;13.32;;;9.93;;
45792;SDS011;31495;42.740;22.908;2022-07-29T00:07:05;14.25;;;10.38;;
45792;SDS011;31495;42.740;22.908;2022-07-29T00:08:04;13.77;;;10.13;;
45792;SDS011;31495;42.740;22.908;2022-07-29T00:09:04;13.93;;;10.25;;
45792;SDS011;31495;42.740;22.908;2022-07-29T00:10:04;11.48;;;10.07;;
45792;SDS011;31495;42.740;22.908;2022-07-29T00:11:03;13.70;;;9.98;;
45792;SDS011;31495;42.740;22.908;2022-07-29T00:12:03;12.60;;;9.75;;
45792;SDS011;31495;42.740;22.908;2022-07-29T00:13:03;10.82;;;9.70;;
45792;SDS011;31495;42.740;22.908;2022-07-29T00:14:04;14.20;;;10.15;;
45792;SDS011;31495;42.740;22.908;2022-07-29T00:15:04;12.55;;;9.93;;
45792;SDS011;31495;42.740;22.908;2022-07-29T00:16:04;15.00;;;9.88;;
45792;SDS011;31495;42.740;22.908;2022-07-29T00:17:03;13.43;;;10.35;;
45792;SDS011;31495;42.740;22.908;2022-07-29T00:18:03;13.90;;;10.55;;
45792;SDS011;31495;42.740;22.908;2022-07-29T00:19:03;13.88;;;9.57;;
45792;SDS011;31495;42.740;22.908;2022-07-29T00:20:03;13.48;;;10.30;;
45792;SDS011;31495;42.740;22.908;2022-07-29T00:21:04;11.13;;;9.93;;
45792;SDS011;31495;42.740;22.908;2022-07-29T00:22:03;15.45;;;9.85;;
45792;SDS011;31495;42.740;22.908;2022-07-29T00:23:03;10.90;;;9.13;;
45792;SDS011;31495;42.740;22.908;2022-07-29T00:24:02;15.32;;;10.50;;
45792;SDS011;31495;42.740;22.908;2022-07-29T00:25:02;13.18;;;10.55;;
45792;SDS011;31495;42.740;22.908;2022-07-29T00:26:02;10.55;;;9.32;;
45792;SDS011;31495;42.740;22.908;2022-07-29T00:27:02;12.20;;;9.77;;
45792;SDS011;31495;42.740;22.908;2022-07-29T00:28:02;13.68;;;10.55;;
45792;SDS011;31495;42.740;22.908;2022-07-29T00:29:02;13.45;;;10.88;;
45792;SDS011;31495;42.740;22.908;2022-07-29T00:30:03;11.23;;;9.90;;
45792;SDS011;31495;42.740;22.908;2022-07-29T00:31:03;12.35;;;9.70;;
45792;SDS011;31495;42.740;22.908;2022-07-29T00:32:02;13.00;;;9.80;;
45792;SDS011;31495;42.740;22.908;2022-07-29T00:33:02;14.98;;;9.57;;
45792;SDS011;31495;42.740;22.908;2022-07-29T00:34:02;11.98;;;10.18;;
45792;SDS011;31495;42.740;22.908;2022-07-29T00:35:02;14.60;;;10.60;;
45792;SDS011;31495;42.740;22.908;2022-07-29T00:36:21;16.15;;;10.55;;
45792;SDS011;31495;42.740;22.908;2022-07-29T00:37:21;11.63;;;9.73;;
45792;SDS011;31495;42.740;22.908;2022-07-29T00:38:20;11.30;;;9.88;;
45792;SDS011;31495;42.740;22.908;2022-07-29T00:39:20;11.60;;;10.05;;
45792;SDS011;31495;42.740;22.908;2022-07-29T00:40:20;12.93;;;10.13;;
45792;SDS011;31495;42.740;22.908;2022-07-29T00:41:19;16.73;;;10.77;;
45792;SDS011;31495;42.740;22.908;2022-07-29T00:42:19;12.45;;;10.30;;
45792;SDS011;31495;42.740;22.908;2022-07-29T00:43:18;13.27;;;10.27;;
45792;SDS011;31495;42.740;22.908;2022-07-29T00:44:18;16.10;;;9.38;;
45792;SDS011;31495;42.740;22.908;2022-07-29T00:45:18;15.23;;;10.35;;
45792;SDS011;31495;42.740;22.908;2022-07-29T00:46:18;16.05;;;10.88;;
45792;SDS011;31495;42.740;22.908;2022-07-29T00:47:18;18.75;;;11.48;;
45792;SDS011;31495;42.740;22.908;2022-07-29T00:48:17;11.75;;;10.00;;
45792;SDS011;31495;42.740;22.908;2022-07-29T00:49:16;13.30;;;10.05;;
45792;SDS011;31495;42.740;22.908;2022-07-29T00:50:16;14.32;;;10.30;;
45792;SDS011;31495;42.740;22.908;2022-07-29T00:51:16;14.00;;;9.85;;
45792;SDS011;31495;42.740;22.908;2022-07-29T00:52:16;15.75;;;11.25;;
45792;SDS011;31495;42.740;22.908;2022-07-29T00:53:16;12.98;;;9.70;;
45792;SDS011;31495;42.740;22.908;2022-07-29T00:54:15;14.90;;;10.45;;
45792;SDS011;31495;42.740;22.908;2022-07-29T00:55:15;13.93;;;9.32;;
45792;SDS011;31495;42.740;22.908;2022-07-29T00:56:15;11.77;;;9.85;;
45792;SDS011;31495;42.740;22.908;2022-07-29T00:57:15;14.95;;;9.77;;
45792;SDS011;31495;42.740;22.908;2022-07-29T00:58:14;12.65;;;10.10;;
45792;SDS011;31495;42.740;22.908;2022-07-29T00:59:13;13.25;;;10.15;;
45792;SDS011;31495;42.740;22.908;2022-07-29T01:00:15;11.65;;;9.52;;
45792;SDS011;31495;42.740;22.908;2022-07-29T01:01:19;13.85;;;10.20;;
45792;SDS011;31495;42.740;22.908;2022-07-29T01:02:18;14.30;;;9.43;;
45792;SDS011;31495;42.740;22.908;2022-07-29T01:03:18;12.75;;;9.73;;
45792;SDS011;31495;42.740;22.908;2022-07-29T01:04:18;11.73;;;9.25;;
45792;SDS011;31495;42.740;22.908;2022-07-29T01:05:21;12.73;;;9.77;;
45792;SDS011;31495;42.740;22.908;2022-07-29T01:06:22;10.35;;;9.25;;
45792;SDS011;31495;42.740;22.908;2022-07-29T01:07:24;11.32;;;9.07;;
45792;SDS011;31495;42.740;22.908;2022-07-29T01:08:25;10.25;;;8.60;;
45792;SDS011;31495;42.740;22.908;2022-07-29T01:09:25;11.43;;;9.38;;
45792;SDS011;31495;42.740;22.908;2022-07-29T01:10:26;12.02;;;8.98;;
45792;SDS011;31495;42.740;22.908;2022-07-29T01:11:26;14.43;;;8.60;;
45792;SDS011;31495;42.740;22.908;2022-07-29T01:12:27;12.20;;;9.23;;
45792;SDS011;31495;42.740;22.908;2022-07-29T01:13:31;9.75;;;8.30;;
45792;SDS011;31495;42.740;22.908;2022-07-29T01:14:32;11.60;;;8.32;;
45792;SDS011;31495;42.740;22.908;2022-07-29T01:15:32;11.20;;;7.90;;
45792;SDS011;31495;42.740;22.908;2022-07-29T01:17:12;10.50;;;8.48;;
45792;SDS011;31495;42.740;22.908;2022-07-29T01:18:16;10.50;;;8.13;;
45792;SDS011;31495;42.740;22.908;2022-07-29T01:22:42;10.77;;;8.75;;
45792;SDS011;31495;42.740;22.908;2022-07-29T01:28:01;9.95;;;8.52;;
45792;SDS011;31495;42.740;22.908;2022-07-29T01:30:24;18.20;;;8.98;;
45792;SDS011;31495;42.740;22.908;2022-07-29T01:31:28;10.15;;;7.88;;
45792;SDS011;31495;42.740;22.908;2022-07-29T01:32:35;11.65;;;8.52;;
45792;SDS011;31495;42.740;22.908;2022-07-29T01:33:40;9.30;;;7.85;;
45792;SDS011;31495;42.740;22.908;2022-07-29T01:34:53;13.32;;;8.07;;
45792;SDS011;31495;42.740;22.908;2022-07-29T01:35:58;11.82;;;8.85;;
45792;SDS011;31495;42.740;22.908;2022-07-29T01:37:14;10.68;;;8.32;;
45792;SDS011;31495;42.740;22.908;2022-07-29T01:38:20;9.48;;;8.30;;
45792;SDS011;31495;42.740;22.908;2022-07-29T01:40:34;11.57;;;9.05;;
45792;SDS011;31495;42.740;22.908;2022-07-29T01:41:35;12.20;;;9.52;;
45792;SDS011;31495;42.740;22.908;2022-07-29T01:42:42;12.50;;;9.90;;
45792;SDS011;31495;42.740;22.908;2022-07-29T01:44:02;13.98;;;10.15;;
45792;SDS011;31495;42.740;22.908;2022-07-29T01:46:38;16.60;;;11.40;;
45792;SDS011;31495;42.740;22.908;2022-07-29T01:47:44;15.45;;;11.52;;
45792;SDS011;31495;42.740;22.908;2022-07-29T01:48:53;15.25;;;12.63;;
45792;SDS011;31495;42.740;22.908;2022-07-29T01:49:56;16.15;;;12.40;;
45792;SDS011;31495;42.740;22.908;2022-07-29T01:51:12;19.58;;;12.65;;
45792;SDS011;31495;42.740;22.908;2022-07-29T01:52:19;14.60;;;11.90;;
45792;SDS011;31495;42.740;22.908;2022-07-29T01:53:33;15.18;;;12.43;;
45792;SDS011;31495;42.740;22.908;2022-07-29T01:54:45;15.63;;;12.20;;
45792;SDS011;31495;42.740;22.908;2022-07-29T01:55:51;15.18;;;13.02;;
45792;SDS011;31495;42.740;22.908;2022-07-29T01:56:53;21.25;;;12.98;;
45792;SDS011;31495;42.740;22.908;2022-07-29T01:57:56;17.77;;;12.95;;
45792;SDS011;31495;42.740;22.908;2022-07-29T01:58:58;19.60;;;13.20;;
45792;SDS011;31495;42.740;22.908;2022-07-29T01:59:58;17.70;;;14.02;;
45792;SDS011;31495;42.740;22.908;2022-07-29T02:00:59;19.08;;;11.75;;
45792;SDS011;31495;42.740;22.908;2022-07-29T02:02:02;14.13;;;11.80;;
45792;SDS011;31495;42.740;22.908;2022-07-29T02:03:02;14.27;;;12.55;;
45792;SDS011;31495;42.740;22.908;2022-07-29T02:04:07;17.25;;;12.25;;
45792;SDS011;31495;42.740;22.908;2022-07-29T02:05:11;14.65;;;12.45;;
45792;SDS011;31495;42.740;22.908;2022-07-29T02:06:15;15.07;;;12.68;;
45792;SDS011;31495;42.740;22.908;2022-07-29T02:07:20;15.20;;;12.52;;
45792;SDS011;31495;42.740;22.908;2022-07-29T02:08:21;18.95;;;13.68;;
45792;SDS011;31495;42.740;22.908;2022-07-29T02:09:21;19.58;;;12.65;;
45792;SDS011;31495;42.740;22.908;2022-07-29T02:10:23;15.35;;;12.05;;
45792;SDS011;31495;42.740;22.908;2022-07-29T02:11:25;15.77;;;11.98;;
45792;SDS011;31495;42.740;22.908;2022-07-29T02:12:26;19.38;;;12.90;;
45792;SDS011;31495;42.740;22.908;2022-07-29T02:13:28;14.27;;;11.27;;
45792;SDS011;31495;42.740;22.908;2022-07-29T02:14:40;12.75;;;10.73;;
45792;SDS011;31495;42.740;22.908;2022-07-29T02:15:42;13.45;;;10.10;;
45792;SDS011;31495;42.740;22.908;2022-07-29T02:16:43;14.00;;;9.68;;
45792;SDS011;31495;42.740;22.908;2022-07-29T02:17:51;12.70;;;9.75;;
45792;SDS011;31495;42.740;22.908;2022-07-29T02:18:55;13.38;;;10.63;;
45792;SDS011;31495;42.740;22.908;2022-07-29T02:19:59;13.63;;;10.93;;
45792;SDS011;31495;42.740;22.908;2022-07-29T02:21:00;15.88;;;9.93;;
45792;SDS011;31495;42.740;22.908;2022-07-29T02:22:02;13.18;;;9.95;;
45792;SDS011;31495;42.740;22.908;2022-07-29T02:23:05;13.07;;;10.00;;
45792;SDS011;31495;42.740;22.908;2022-07-29T02:24:06;12.65;;;10.60;;
45792;SDS011;31495;42.740;22.908;2022-07-29T02:25:08;12.73;;;9.82;;
45792;SDS011;31495;42.740;22.908;2022-07-29T02:26:10;16.00;;;10.77;;
45792;SDS011;31495;42.740;22.908;2022-07-29T02:27:10;15.18;;;11.43;;
45792;SDS011;31495;42.740;22.908;2022-07-29T02:28:11;13.50;;;11.07;;
45792;SDS011;31495;42.740;22.908;2022-07-29T02:29:12;12.05;;;10.02;;
45792;SDS011;31495;42.740;22.908;2022-07-29T02:30:14;13.82;;;10.07;;
45792;SDS011;31495;42.740;22.908;2022-07-29T02:31:14;13.27;;;11.88;;
45792;SDS011;31495;42.740;22.908;2022-07-29T02:32:17;13.50;;;10.75;;
45792;SDS011;31495;42.740;22.908;2022-07-29T02:33:20;12.10;;;10.18;;
45792;SDS011;31495;42.740;22.908;2022-07-29T02:35:22;13.23;;;10.90;;
45792;SDS011;31495;42.740;22.908;2022-07-29T02:36:22;12.80;;;10.20;;
45792;SDS011;31495;42.740;22.908;2022-07-29T02:37:23;12.00;;;10.60;;
45792;SDS011;31495;42.740;22.908;2022-07-29T02:38:25;13.48;;;10.93;;
45792;SDS011;31495;42.740;22.908;2022-07-29T02:39:46;13.30;;;9.95;;
45792;SDS011;31495;42.740;22.908;2022-07-29T02:40:47;13.60;;;10.57;;
45792;SDS011;31495;42.740;22.908;2022-07-29T02:41:54;13.60;;;10.23;;
45792;SDS011;31495;42.740;22.908;2022-07-29T02:42:58;18.25;;;10.02;;
45792;SDS011;31495;42.740;22.908;2022-07-29T02:44:03;11.60;;;10.40;;
45792;SDS011;31495;42.740;22.908;2022-07-29T02:45:08;15.05;;;10.82;;
45792;SDS011;31495;42.740;22.908;2022-07-29T02:46:11;12.90;;;10.43;;
45792;SDS011;31495;42.740;22.908;2022-07-29T02:47:49;14.32;;;10.13;;
45792;SDS011;31495;42.740;22.908;2022-07-29T02:48:48;12.25;;;9.85;;
45792;SDS011;31495;42.740;22.908;2022-07-29T02:50:04;11.82;;;9.63;;
45792;SDS011;31495;42.740;22.908;2022-07-29T02:51:19;16.95;;;9.82;;
45792;SDS011;31495;42.740;22.908;2022-07-29T02:52:26;12.07;;;10.57;;
45792;SDS011;31495;42.740;22.908;2022-07-29T02:53:25;11.38;;;9.23;;
45792;SDS011;31495;42.740;22.908;2022-07-29T02:54:37;11.73;;;10.10;;
45792;SDS011;31495;42.740;22.908;2022-07-29T02:55:51;12.27;;;10.00;;
45792;SDS011;31495;42.740;22.908;2022-07-29T02:57:03;13.25;;;10.35;;
45792;SDS011;31495;42.740;22.908;2022-07-29T02:58:21;11.18;;;9.55;;
45792;SDS011;31495;42.740;22.908;2022-07-29T02:59:28;16.08;;;10.70;;
45792;SDS011;31495;42.740;22.908;2022-07-29T03:00:33;13.77;;;10.73;;
45792;SDS011;31495;42.740;22.908;2022-07-29T03:01:36;13.93;;;10.90;;
45792;SDS011;31495;42.740;22.908;2022-07-29T03:02:43;13.30;;;9.95;;
45792;SDS011;31495;42.740;22.908;2022-07-29T03:03:44;14.60;;;10.30;;
45792;SDS011;31495;42.740;22.908;2022-07-29T03:04:45;17.88;;;11.25;;
45792;SDS011;31495;42.740;22.908;2022-07-29T03:05:48;12.57;;;11.13;;
45792;SDS011;31495;42.740;22.908;2022-07-29T03:06:47;16.70;;;10.35;;
45792;SDS011;31495;42.740;22.908;2022-07-29T03:07:55;16.95;;;11.60;;
45792;SDS011;31495;42.740;22.908;2022-07-29T03:08:59;14.18;;;11.32;;
45792;SDS011;31495;42.740;22.908;2022-07-29T03:09:59;15.68;;;12.07;;
45792;SDS011;31495;42.740;22.908;2022-07-29T03:11:00;15.50;;;11.40;;
45792;SDS011;31495;42.740;22.908;2022-07-29T03:12:00;16.77;;;10.80;;
45792;SDS011;31495;42.740;22.908;2022-07-29T03:13:01;12.52;;;10.57;;
45792;SDS011;31495;42.740;22.908;2022-07-29T03:14:01;14.50;;;11.27;;
45792;SDS011;31495;42.740;22.908;2022-07-29T03:15:02;14.10;;;10.43;;
45792;SDS011;31495;42.740;22.908;2022-07-29T03:16:02;13.05;;;10.35;;
45792;SDS011;31495;42.740;22.908;2022-07-29T03:18:03;14.95;;;11.32;;
45792;SDS011;31495;42.740;22.908;2022-07-29T03:19:03;14.93;;;11.32;;
45792;SDS011;31495;42.740;22.908;2022-07-29T03:20:04;13.10;;;10.90;;
45792;SDS011;31495;42.740;22.908;2022-07-29T03:21:05;17.85;;;11.90;;
45792;SDS011;31495;42.740;22.908;2022-07-29T03:22:05;15.80;;;11.23;;
45792;SDS011;31495;42.740;22.908;2022-07-29T03:23:05;13.10;;;10.75;;
45792;SDS011;31495;42.740;22.908;2022-07-29T03:24:05;14.45;;;11.13;;
45792;SDS011;31495;42.740;22.908;2022-07-29T03:25:08;15.30;;;10.93;;
45792;SDS011;31495;42.740;22.908;2022-07-29T03:26:12;16.45;;;11.52;;
45792;SDS011;31495;42.740;22.908;2022-07-29T03:27:11;12.52;;;11.05;;
45792;SDS011;31495;42.740;22.908;2022-07-29T03:28:11;14.43;;;11.60;;
45792;SDS011;31495;42.740;22.908;2022-07-29T03:29:10;15.98;;;11.15;;
45792;SDS011;31495;42.740;22.908;2022-07-29T03:30:10;14.93;;;10.40;;
45792;SDS011;31495;42.740;22.908;2022-07-29T03:31:11;12.77;;;11.00;;
45792;SDS011;31495;42.740;22.908;2022-07-29T03:32:10;11.93;;;10.35;;
45792;SDS011;31495;42.740;22.908;2022-07-29T03:33:10;13.20;;;10.02;;
45792;SDS011;31495;42.740;22.908;2022-07-29T03:34:10;14.52;;;10.70;;
45792;SDS011;31495;42.740;22.908;2022-07-29T03:35:09;14.90;;;10.57;;
45792;SDS011;31495;42.740;22.908;2022-07-29T03:36:09;13.30;;;10.27;;
45792;SDS011;31495;42.740;22.908;2022-07-29T03:37:08;11.82;;;9.38;;
45792;SDS011;31495;42.740;22.908;2022-07-29T03:38:07;22.55;;;10.02;;
45792;SDS011;31495;42.740;22.908;2022-07-29T03:39:07;12.70;;;9.77;;
45792;SDS011;31495;42.740;22.908;2022-07-29T03:40:08;15.05;;;10.90;;
45792;SDS011;31495;42.740;22.908;2022-07-29T03:41:10;12.02;;;9.80;;
45792;SDS011;31495;42.740;22.908;2022-07-29T03:42:13;11.68;;;10.27;;
45792;SDS011;31495;42.740;22.908;2022-07-29T03:43:15;13.15;;;10.70;;
45792;SDS011;31495;42.740;22.908;2022-07-29T03:44:17;24.33;;;11.10;;
45792;SDS011;31495;42.740;22.908;2022-07-29T03:46:19;12.55;;;10.07;;
45792;SDS011;31495;42.740;22.908;2022-07-29T03:47:22;13.60;;;10.77;;
45792;SDS011;31495;42.740;22.908;2022-07-29T03:48:25;12.98;;;9.93;;
45792;SDS011;31495;42.740;22.908;2022-07-29T03:49:25;15.57;;;10.48;;
45792;SDS011;31495;42.740;22.908;2022-07-29T03:50:26;15.38;;;11.05;;
45792;SDS011;31495;42.740;22.908;2022-07-29T03:52:27;14.82;;;11.27;;
45792;SDS011;31495;42.740;22.908;2022-07-29T03:53:26;15.38;;;12.20;;
45792;SDS011;31495;42.740;22.908;2022-07-29T03:54:26;15.93;;;11.88;;
45792;SDS011;31495;42.740;22.908;2022-07-29T03:55:27;13.95;;;11.63;;
45792;SDS011;31495;42.740;22.908;2022-07-29T03:56:28;17.98;;;12.07;;
45792;SDS011;31495;42.740;22.908;2022-07-29T03:57:28;17.73;;;12.27;;
45792;SDS011;31495;42.740;22.908;2022-07-29T03:58:30;15.35;;;11.43;;
45792;SDS011;31495;42.740;22.908;2022-07-29T03:59:30;15.40;;;12.20;;
45792;SDS011;31495;42.740;22.908;2022-07-29T04:00:32;15.50;;;12.35;;
45792;SDS011;31495;42.740;22.908;2022-07-29T04:01:33;15.93;;;11.85;;
45792;SDS011;31495;42.740;22.908;2022-07-29T04:02:34;16.88;;;12.13;;
45792;SDS011;31495;42.740;22.908;2022-07-29T04:03:34;18.45;;;13.43;;
45792;SDS011;31495;42.740;22.908;2022-07-29T04:04:34;15.88;;;13.75;;
45792;SDS011;31495;42.740;22.908;2022-07-29T04:05:35;13.77;;;11.95;;
45792;SDS011;31495;42.740;22.908;2022-07-29T04:06:38;13.95;;;11.65;;
45792;SDS011;31495;42.740;22.908;2022-07-29T04:07:45;18.20;;;11.63;;
45792;SDS011;31495;42.740;22.908;2022-07-29T04:08:45;14.13;;;11.45;;
45792;SDS011;31495;42.740;22.908;2022-07-29T04:09:45;17.83;;;12.43;;
45792;SDS011;31495;42.740;22.908;2022-07-29T04:10:44;14.35;;;11.32;;
45792;SDS011;31495;42.740;22.908;2022-07-29T04:11:45;15.05;;;12.32;;
45792;SDS011;31495;42.740;22.908;2022-07-29T04:12:44;14.88;;;12.23;;
45792;SDS011;31495;42.740;22.908;2022-07-29T04:13:44;17.00;;;12.00;;
45792;SDS011;31495;42.740;22.908;2022-07-29T04:14:43;15.57;;;12.27;;
45792;SDS011;31495;42.740;22.908;2022-07-29T04:15:43;19.20;;;12.23;;
45792;SDS011;31495;42.740;22.908;2022-07-29T04:16:43;17.77;;;12.02;;
45792;SDS011;31495;42.740;22.908;2022-07-29T04:17:42;14.73;;;11.95;;
45792;SDS011;31495;42.740;22.908;2022-07-29T04:18:41;15.07;;;12.35;;
45792;SDS011;31495;42.740;22.908;2022-07-29T04:19:41;14.88;;;13.00;;
45792;SDS011;31495;42.740;22.908;2022-07-29T04:20:40;14.07;;;11.77;;
45792;SDS011;31495;42.740;22.908;2022-07-29T04:21:40;17.23;;;12.13;;
45792;SDS011;31495;42.740;22.908;2022-07-29T04:22:40;13.63;;;11.40;;
45792;SDS011;31495;42.740;22.908;2022-07-29T04:23:41;17.35;;;12.05;;
45792;SDS011;31495;42.740;22.908;2022-07-29T04:24:40;13.15;;;10.63;;
45792;SDS011;31495;42.740;22.908;2022-07-29T04:25:40;15.57;;;12.02;;
45792;SDS011;31495;42.740;22.908;2022-07-29T04:26:40;14.68;;;12.02;;
45792;SDS011;31495;42.740;22.908;2022-07-29T04:27:39;15.00;;;11.35;;
45792;SDS011;31495;42.740;22.908;2022-07-29T04:28:58;14.50;;;10.43;;
45792;SDS011;31495;42.740;22.908;2022-07-29T04:29:58;13.55;;;11.20;;
45792;SDS011;31495;42.740;22.908;2022-07-29T04:30:57;13.45;;;10.88;;
45792;SDS011;31495;42.740;22.908;2022-07-29T04:31:57;14.98;;;11.32;;
45792;SDS011;31495;42.740;22.908;2022-07-29T04:32:56;13.55;;;10.93;;
45792;SDS011;31495;42.740;22.908;2022-07-29T04:33:56;15.05;;;11.82;;
45792;SDS011;31495;42.740;22.908;2022-07-29T04:34:55;16.23;;;11.25;;
45792;SDS011;31495;42.740;22.908;2022-07-29T04:35:55;21.00;;;12.65;;
45792;SDS011;31495;42.740;22.908;2022-07-29T04:36:54;13.45;;;11.40;;
45792;SDS011;31495;42.740;22.908;2022-07-29T04:37:54;17.73;;;11.52;;
45792;SDS011;31495;42.740;22.908;2022-07-29T04:38:53;20.30;;;12.82;;
45792;SDS011;31495;42.740;22.908;2022-07-29T04:39:53;26.50;;;13.27;;
45792;SDS011;31495;42.740;22.908;2022-07-29T04:40:53;15.00;;;11.95;;
45792;SDS011;31495;42.740;22.908;2022-07-29T04:41:52;16.95;;;12.32;;
45792;SDS011;31495;42.740;22.908;2022-07-29T04:42:52;16.50;;;11.63;;
45792;SDS011;31495;42.740;22.908;2022-07-29T04:43:52;18.58;;;12.95;;
45792;SDS011;31495;42.740;22.908;2022-07-29T04:44:51;17.17;;;12.80;;
45792;SDS011;31495;42.740;22.908;2022-07-29T04:45:51;15.52;;;11.98;;
45792;SDS011;31495;42.740;22.908;2022-07-29T04:46:50;16.73;;;11.73;;
45792;SDS011;31495;42.740;22.908;2022-07-29T04:47:49;16.17;;;12.38;;
45792;SDS011;31495;42.740;22.908;2022-07-29T04:48:49;15.43;;;12.43;;
45792;SDS011;31495;42.740;22.908;2022-07-29T04:49:48;17.20;;;12.23;;
45792;SDS011;31495;42.740;22.908;2022-07-29T04:50:48;17.58;;;13.05;;
45792;SDS011;31495;42.740;22.908;2022-07-29T04:51:47;15.98;;;13.25;;
45792;SDS011;31495;42.740;22.908;2022-07-29T04:52:46;15.40;;;11.65;;
45792;SDS011;31495;42.740;22.908;2022-07-29T04:53:46;15.88;;;12.00;;
45792;SDS011;31495;42.740;22.908;2022-07-29T04:54:45;16.52;;;12.90;;
45792;SDS011;31495;42.740;22.908;2022-07-29T04:55:45;13.85;;;12.25;;
45792;SDS011;31495;42.740;22.908;2022-07-29T04:56:44;16.15;;;12.00;;
45792;SDS011;31495;42.740;22.908;2022-07-29T04:57:45;16.20;;;12.10;;
45792;SDS011;31495;42.740;22.908;2022-07-29T04:58:44;15.00;;;12.13;;
45792;SDS011;31495;42.740;22.908;2022-07-29T04:59:44;16.25;;;13.18;;
45792;SDS011;31495;42.740;22.908;2022-07-29T05:00:43;12.43;;;10.77;;
45792;SDS011;31495;42.740;22.908;2022-07-29T05:01:43;14.93;;;11.50;;
45792;SDS011;31495;42.740;22.908;2022-07-29T05:02:42;15.35;;;11.73;;
45792;SDS011;31495;42.740;22.908;2022-07-29T05:03:41;12.50;;;11.20;;
45792;SDS011;31495;42.740;22.908;2022-07-29T05:04:41;13.90;;;10.40;;
45792;SDS011;31495;42.740;22.908;2022-07-29T05:05:40;13.75;;;12.13;;
45792;SDS011;31495;42.740;22.908;2022-07-29T05:06:41;11.57;;;10.38;;
45792;SDS011;31495;42.740;22.908;2022-07-29T05:07:40;12.65;;;10.75;;
45792;SDS011;31495;42.740;22.908;2022-07-29T05:08:40;12.50;;;10.38;;
45792;SDS011;31495;42.740;22.908;2022-07-29T05:09:39;17.77;;;11.32;;
45792;SDS011;31495;42.740;22.908;2022-07-29T05:10:39;12.00;;;10.18;;
45792;SDS011;31495;42.740;22.908;2022-07-29T05:11:38;13.07;;;11.07;;
45792;SDS011;31495;42.740;22.908;2022-07-29T05:12:38;16.27;;;11.52;;
45792;SDS011;31495;42.740;22.908;2022-07-29T05:13:37;13.90;;;10.82;;
45792;SDS011;31495;42.740;22.908;2022-07-29T05:14:37;14.65;;;11.35;;
45792;SDS011;31495;42.740;22.908;2022-07-29T05:15:36;15.20;;;11.30;;
45792;SDS011;31495;42.740;22.908;2022-07-29T05:16:36;13.20;;;10.80;;
45792;SDS011;31495;42.740;22.908;2022-07-29T05:17:35;12.20;;;10.68;;
45792;SDS011;31495;42.740;22.908;2022-07-29T05:18:35;17.13;;;12.13;;
45792;SDS011;31495;42.740;22.908;2022-07-29T05:19:34;13.13;;;11.63;;
45792;SDS011;31495;42.740;22.908;2022-07-29T05:20:33;16.17;;;11.20;;
45792;SDS011;31495;42.740;22.908;2022-07-29T05:21:33;14.73;;;11.65;;
45792;SDS011;31495;42.740;22.908;2022-07-29T05:22:33;15.30;;;11.80;;
45792;SDS011;31495;42.740;22.908;2022-07-29T05:23:32;14.38;;;12.00;;
45792;SDS011;31495;42.740;22.908;2022-07-29T05:24:32;17.38;;;12.00;;
45792;SDS011;31495;42.740;22.908;2022-07-29T05:25:31;15.18;;;11.65;;
45792;SDS011;31495;42.740;22.908;2022-07-29T05:26:31;15.40;;;10.57;;
45792;SDS011;31495;42.740;22.908;2022-07-29T05:27:30;14.32;;;11.85;;
45792;SDS011;31495;42.740;22.908;2022-07-29T05:28:32;16.35;;;12.07;;
45792;SDS011;31495;42.740;22.908;2022-07-29T05:29:33;15.25;;;11.45;;
45792;SDS011;31495;42.740;22.908;2022-07-29T05:30:33;15.60;;;12.07;;
45792;SDS011;31495;42.740;22.908;2022-07-29T05:31:33;22.45;;;12.35;;
45792;SDS011;31495;42.740;22.908;2022-07-29T05:32:32;20.13;;;11.90;;
45792;SDS011;31495;42.740;22.908;2022-07-29T05:33:32;13.18;;;11.40;;
45792;SDS011;31495;42.740;22.908;2022-07-29T05:34:31;18.40;;;11.45;;
45792;SDS011;31495;42.740;22.908;2022-07-29T05:35:31;12.57;;;10.85;;
45792;SDS011;31495;42.740;22.908;2022-07-29T05:36:30;13.80;;;10.90;;
45792;SDS011;31495;42.740;22.908;2022-07-29T05:37:30;13.40;;;11.15;;
45792;SDS011;31495;42.740;22.908;2022-07-29T05:38:29;12.80;;;11.25;;
45792;SDS011;31495;42.740;22.908;2022-07-29T05:39:29;14.38;;;10.48;;
45792;SDS011;31495;42.740;22.908;2022-07-29T05:40:29;12.93;;;10.23;;
45792;SDS011;31495;42.740;22.908;2022-07-29T05:41:31;13.07;;;10.15;;
45792;SDS011;31495;42.740;22.908;2022-07-29T05:42:31;14.50;;;11.30;;
45792;SDS011;31495;42.740;22.908;2022-07-29T05:43:30;15.18;;;11.65;;
45792;SDS011;31495;42.740;22.908;2022-07-29T05:44:30;17.23;;;10.63;;
45792;SDS011;31495;42.740;22.908;2022-07-29T05:45:29;13.20;;;10.05;;
45792;SDS011;31495;42.740;22.908;2022-07-29T05:46:29;14.50;;;10.75;;
45792;SDS011;31495;42.740;22.908;2022-07-29T05:47:28;12.30;;;10.35;;
45792;SDS011;31495;42.740;22.908;2022-07-29T05:48:27;15.15;;;10.00;;
45792;SDS011;31495;42.740;22.908;2022-07-29T05:49:27;16.90;;;10.75;;
45792;SDS011;31495;42.740;22.908;2022-07-29T05:50:26;13.35;;;10.60;;
45792;SDS011;31495;42.740;22.908;2022-07-29T05:51:26;15.02;;;10.82;;
45792;SDS011;31495;42.740;22.908;2022-07-29T05:52:25;12.65;;;10.07;;
45792;SDS011;31495;42.740;22.908;2022-07-29T05:53:24;12.93;;;10.40;;
45792;SDS011;31495;42.740;22.908;2022-07-29T05:54:24;14.13;;;10.77;;
45792;SDS011;31495;42.740;22.908;2022-07-29T05:55:24;14.68;;;10.07;;
45792;SDS011;31495;42.740;22.908;2022-07-29T05:56:24;11.57;;;9.35;;
45792;SDS011;31495;42.740;22.908;2022-07-29T05:57:24;13.82;;;10.05;;
45792;SDS011;31495;42.740;22.908;2022-07-29T05:58:24;14.55;;;9.77;;
45792;SDS011;31495;42.740;22.908;2022-07-29T05:59:23;20.83;;;10.32;;
45792;SDS011;31495;42.740;22.908;2022-07-29T06:00:23;14.10;;;10.50;;
45792;SDS011;31495;42.740;22.908;2022-07-29T06:01:22;13.60;;;9.98;;
45792;SDS011;31495;42.740;22.908;2022-07-29T06:02:22;15.68;;;10.30;;
45792;SDS011;31495;42.740;22.908;2022-07-29T06:03:21;15.68;;;10.93;;
45792;SDS011;31495;42.740;22.908;2022-07-29T06:04:21;15.30;;;12.70;;
45792;SDS011;31495;42.740;22.908;2022-07-29T06:05:21;15.38;;;11.95;;
45792;SDS011;31495;42.740;22.908;2022-07-29T06:06:20;14.82;;;11.73;;
45792;SDS011;31495;42.740;22.908;2022-07-29T06:07:20;14.43;;;12.43;;
45792;SDS011;31495;42.740;22.908;2022-07-29T06:08:20;18.52;;;12.27;;
45792;SDS011;31495;42.740;22.908;2022-07-29T06:09:19;19.70;;;11.95;;
45792;SDS011;31495;42.740;22.908;2022-07-29T06:10:19;17.30;;;11.68;;
45792;SDS011;31495;42.740;22.908;2022-07-29T06:11:18;13.63;;;11.32;;